Time;durP1;ratioP1;P1;durP2;ratioP2;P2;SDS_P1;SDS_P2;PMS_P1;PMS_P2;Temp;Humidity;BMP_temperature;BMP_pressure;BME280_temperature;BME280_humidity;BME280_pressure;Samples;Min_cycle;Max_cycle;Signal;HPM_P1;HPM_P2
2021/03/22 00:00:45;;;;;;;31.00;6.05;;;7.40;99.90;;;;;;4959764;28;20034;-74
2021/03/22 00:03:12;;;;;;;28.70;5.95;;;7.40;99.90;;;;;;4963975;28;20502;-74
2021/03/22 00:05:37;;;;;;;31.50;6.35;;;7.40;99.90;;;;;;4943420;28;20023;-74
2021/03/22 00:08:05;;;;;;;32.88;6.40;;;7.30;99.90;;;;;;4963318;28;20491;-74
2021/03/22 00:10:32;;;;;;;24.05;5.68;;;7.30;99.90;;;;;;4958581;28;20023;-74
2021/03/22 00:12:59;;;;;;;31.98;6.15;;;7.30;99.90;;;;;;4960734;28;20371;-75
2021/03/22 00:15:26;;;;;;;27.55;5.38;;;7.30;99.90;;;;;;4970544;28;20059;-74
2021/03/22 00:17:52;;;;;;;30.83;5.93;;;7.30;99.90;;;;;;4966901;28;20030;-74
2021/03/22 00:20:18;;;;;;;27.40;6.45;;;7.20;99.90;;;;;;4964773;28;20019;-74
2021/03/22 00:22:45;;;;;;;23.33;5.93;;;7.10;99.90;;;;;;4959079;28;20019;-74
2021/03/22 00:25:11;;;;;;;31.98;5.10;;;7.10;99.90;;;;;;4964601;28;20029;-74
2021/03/22 00:27:37;;;;;;;22.48;4.97;;;7.10;99.90;;;;;;4962340;28;20391;-74
2021/03/22 00:30:06;;;;;;;40.53;5.35;;;7.00;99.90;;;;;;4968419;28;20051;-74
2021/03/22 00:32:32;;;;;;;32.95;5.60;;;7.00;99.90;;;;;;4963637;28;20058;-74
2021/03/22 00:34:58;;;;;;;29.90;5.45;;;7.00;99.90;;;;;;4962325;28;20027;-74
2021/03/22 00:37:23;;;;;;;27.13;5.00;;;6.90;99.90;;;;;;4959664;28;20038;-73
2021/03/22 00:39:49;;;;;;;25.30;5.35;;;6.90;99.90;;;;;;4965744;28;20035;-73
2021/03/22 00:42:14;;;;;;;28.23;5.90;;;6.90;99.90;;;;;;4967920;28;20039;-73
2021/03/22 00:44:40;;;;;;;26.27;5.50;;;6.80;99.90;;;;;;4966429;28;20467;-74
2021/03/22 00:47:06;;;;;;;34.67;5.57;;;6.80;99.90;;;;;;4963642;28;20046;-73
2021/03/22 00:49:32;;;;;;;38.00;6.72;;;6.70;99.90;;;;;;4958619;28;20020;-74
2021/03/22 00:51:58;;;;;;;26.88;4.93;;;6.60;99.90;;;;;;4967347;28;20047;-74
2021/03/22 00:54:23;;;;;;;26.77;5.63;;;6.60;99.90;;;;;;4965052;28;20077;-73
2021/03/22 00:56:49;;;;;;;28.58;5.53;;;6.60;99.90;;;;;;4966725;28;20136;-73
2021/03/22 00:59:17;;;;;;;31.25;6.22;;;6.60;99.90;;;;;;4960567;28;20038;-74
2021/03/22 01:01:42;;;;;;;24.02;5.22;;;6.60;99.90;;;;;;4965846;28;20473;-73
2021/03/22 01:04:08;;;;;;;23.40;5.47;;;6.60;99.90;;;;;;4966493;28;20040;-74
2021/03/22 01:06:33;;;;;;;26.70;5.47;;;6.40;99.90;;;;;;4967957;28;20030;-74
2021/03/22 01:08:59;;;;;;;26.95;5.45;;;6.40;99.90;;;;;;4966328;28;20047;-74
2021/03/22 01:11:25;;;;;;;23.90;4.80;;;6.30;99.90;;;;;;4966536;28;20043;-74
2021/03/22 01:13:56;;;;;;;20.20;4.93;;;6.30;99.90;;;;;;4960532;28;20046;-74
2021/03/22 01:16:24;;;;;;;34.75;5.88;;;6.30;99.90;;;;;;4960794;28;20026;-74
2021/03/22 01:18:52;;;;;;;19.35;4.72;;;6.30;99.90;;;;;;4964437;28;20027;-73
2021/03/22 01:21:30;;;;;;;31.13;4.75;;;6.20;99.90;;;;;;4959411;28;20022;-74
2021/03/22 01:23:56;;;;;;;33.85;6.03;;;6.20;99.90;;;;;;4962050;28;20019;-74
2021/03/22 01:26:25;;;;;;;33.25;6.03;;;6.20;99.90;;;;;;4959771;28;20027;-74
2021/03/22 01:28:53;;;;;;;32.20;6.05;;;6.20;99.90;;;;;;4961062;28;20031;-73
2021/03/22 01:31:19;;;;;;;32.30;5.82;;;6.10;99.90;;;;;;4964252;28;20066;-73
2021/03/22 01:33:48;;;;;;;29.23;6.55;;;6.20;99.90;;;;;;4962334;28;20054;-73
2021/03/22 01:36:18;;;;;;;26.65;6.32;;;6.30;99.90;;;;;;4967376;28;20436;-74
2021/03/22 01:38:44;;;;;;;28.08;5.13;;;6.30;99.90;;;;;;4962684;28;20027;-74
2021/03/22 01:41:37;;;;;;;20.50;5.07;;;6.30;99.90;;;;;;4962310;28;20039;-73
2021/03/22 01:44:21;;;;;;;38.42;5.93;;;6.30;99.90;;;;;;4965738;28;20032;-73
2021/03/22 01:47:00;;;;;;;28.67;5.97;;;6.20;99.90;;;;;;4961669;28;20053;-74
2021/03/22 01:49:28;;;;;;;26.85;5.32;;;6.20;99.90;;;;;;4957941;28;20039;-74
2021/03/22 01:51:56;;;;;;;29.33;6.70;;;6.20;99.90;;;;;;4963851;28;20973;-74
2021/03/22 01:54:23;;;;;;;26.98;6.85;;;6.20;99.90;;;;;;4966594;28;20021;-73
2021/03/22 01:57:15;;;;;;;29.20;6.20;;;6.20;99.90;;;;;;4965876;28;20035;-73
2021/03/22 01:59:41;;;;;;;24.08;5.63;;;6.20;99.90;;;;;;4962560;28;20037;-73
2021/03/22 02:02:07;;;;;;;27.23;5.78;;;6.20;99.90;;;;;;4966830;28;20117;-72
2021/03/22 02:04:33;;;;;;;26.63;5.10;;;6.30;99.90;;;;;;4964799;28;20019;-73
2021/03/22 02:06:59;;;;;;;22.58;5.88;;;6.20;99.90;;;;;;4966428;28;20018;-73
2021/03/22 02:09:25;;;;;;;35.80;6.25;;;6.20;99.90;;;;;;4961669;28;20078;-74
2021/03/22 02:11:51;;;;;;;31.20;6.10;;;6.20;99.90;;;;;;4965155;28;20372;-73
2021/03/22 02:14:17;;;;;;;34.10;7.25;;;6.10;99.90;;;;;;4968397;28;20031;-73
2021/03/22 02:16:57;;;;;;;21.75;6.00;;;6.20;99.90;;;;;;4966779;28;20019;-73
2021/03/22 02:20:00;;;;;;;28.75;6.22;;;6.20;99.90;;;;;;4964123;28;20089;-73
2021/03/22 02:23:06;;;;;;;25.13;5.35;;;6.20;99.90;;;;;;4961625;28;20067;-74
2021/03/22 02:25:46;;;;;;;28.23;6.03;;;6.20;99.90;;;;;;4963578;28;20027;-74
2021/03/22 02:28:51;;;;;;;34.05;6.40;;;6.10;99.90;;;;;;4949198;28;20086;-74
2021/03/22 02:31:54;;;;;;;33.42;7.32;;;6.10;99.90;;;;;;4942572;28;20066;-74
2021/03/22 02:34:28;;;;;;;30.55;7.10;;;6.00;99.90;;;;;;4958505;28;20042;-73
2021/03/22 02:37:04;;;;;;;40.75;6.57;;;6.00;99.90;;;;;;4959222;28;20037;-76
2021/03/22 02:39:35;;;;;;;37.65;7.32;;;6.10;99.90;;;;;;4947065;28;20038;-74
2021/03/22 02:42:06;;;;;;;27.67;5.85;;;6.00;99.90;;;;;;4962668;28;20042;-73
2021/03/22 02:44:36;;;;;;;30.38;5.97;;;5.90;99.90;;;;;;4967870;28;20380;-73
2021/03/22 02:47:20;;;;;;;24.98;7.07;;;5.80;99.90;;;;;;4967229;28;20034;-74
2021/03/22 02:49:46;;;;;;;29.77;5.80;;;5.60;99.90;;;;;;4962766;28;20476;-73
2021/03/22 02:52:23;;;;;;;31.92;6.30;;;5.50;99.90;;;;;;4962222;28;20051;-73
2021/03/22 02:55:17;;;;;;;29.17;6.32;;;5.50;99.90;;;;;;4946920;28;20027;-74
2021/03/22 02:58:21;;;;;;;31.05;6.20;;;5.50;99.90;;;;;;4967709;28;20037;-74
2021/03/22 03:01:01;;;;;;;28.00;5.88;;;5.40;99.90;;;;;;4867660;29;20115;-74
2021/03/22 03:03:29;;;;;;;33.10;6.35;;;5.40;99.90;;;;;;4952813;28;20078;-74
2021/03/22 03:05:55;;;;;;;31.95;7.97;;;5.30;99.90;;;;;;4965014;28;20043;-74
2021/03/22 03:08:25;;;;;;;31.00;6.32;;;5.30;99.90;;;;;;4957682;28;20034;-74
2021/03/22 03:10:51;;;;;;;31.73;6.85;;;5.30;99.90;;;;;;4965371;28;20030;-74
2021/03/22 03:13:16;;;;;;;29.50;6.40;;;5.30;99.90;;;;;;4966755;28;20037;-74
2021/03/22 03:15:42;;;;;;;27.75;7.00;;;5.40;99.90;;;;;;4961846;28;20023;-74
2021/03/22 03:18:08;;;;;;;31.05;7.35;;;5.30;99.90;;;;;;4961236;28;20035;-74
2021/03/22 03:20:33;;;;;;;30.70;7.22;;;5.30;99.90;;;;;;4968760;28;20050;-73
2021/03/22 03:22:59;;;;;;;28.10;6.63;;;5.40;99.90;;;;;;4960641;28;20023;-73
2021/03/22 03:25:27;;;;;;;30.10;6.85;;;5.30;99.90;;;;;;4960780;28;20490;-74
2021/03/22 03:27:53;;;;;;;34.47;8.45;;;5.40;99.90;;;;;;4957849;28;20472;-74
2021/03/22 03:30:27;;;;;;;28.88;6.63;;;5.40;99.90;;;;;;4961360;28;20494;-73
2021/03/22 03:32:54;;;;;;;40.53;8.02;;;5.40;99.90;;;;;;4950938;28;20027;-74
2021/03/22 03:35:23;;;;;;;38.42;7.72;;;5.30;99.90;;;;;;4956972;28;20105;-73
2021/03/22 03:37:49;;;;;;;36.20;8.73;;;5.30;99.90;;;;;;4963719;28;20042;-73
2021/03/22 03:40:19;;;;;;;28.70;7.10;;;5.30;99.90;;;;;;4962358;28;20027;-74
2021/03/22 03:42:45;;;;;;;21.75;6.47;;;5.20;99.90;;;;;;4958404;28;20527;-74
2021/03/22 03:45:13;;;;;;;33.83;7.20;;;5.20;99.90;;;;;;4961171;28;20027;-74
2021/03/22 03:47:40;;;;;;;34.50;7.63;;;5.20;99.90;;;;;;4960421;28;20046;-73
2021/03/22 03:50:10;;;;;;;32.85;8.38;;;5.10;99.90;;;;;;4945511;28;20039;-73
2021/03/22 03:52:36;;;;;;;32.67;7.18;;;5.10;99.90;;;;;;4962005;28;20187;-73
2021/03/22 03:55:04;;;;;;;31.80;7.50;;;5.10;99.90;;;;;;4965712;28;20035;-73
2021/03/22 03:57:29;;;;;;;40.17;8.23;;;5.10;99.90;;;;;;4946784;29;20385;-73
2021/03/22 03:59:55;;;;;;;40.58;9.35;;;5.10;99.90;;;;;;4962308;28;20035;-73
2021/03/22 04:02:21;;;;;;;34.35;6.72;;;5.10;99.90;;;;;;4963025;28;20026;-73
2021/03/22 04:04:46;;;;;;;37.45;7.20;;;5.10;99.90;;;;;;4963430;28;20026;-73
2021/03/22 04:07:12;;;;;;;38.22;9.00;;;5.00;99.90;;;;;;4960684;28;20047;-73
2021/03/22 04:09:37;;;;;;;37.40;8.52;;;4.90;99.90;;;;;;4960728;28;20452;-73
2021/03/22 04:12:04;;;;;;;32.17;7.30;;;4.90;99.90;;;;;;4956002;28;20043;-73
2021/03/22 04:14:29;;;;;;;29.35;7.75;;;4.90;99.90;;;;;;4959871;28;20510;-73
2021/03/22 04:16:55;;;;;;;41.35;8.90;;;4.90;99.90;;;;;;4957275;28;20098;-73
2021/03/22 04:19:22;;;;;;;37.08;8.55;;;4.90;99.90;;;;;;4950976;28;20057;-73
2021/03/22 04:21:49;;;;;;;32.38;8.75;;;4.80;99.90;;;;;;4956096;28;20034;-73
2021/03/22 04:24:16;;;;;;;26.85;9.60;;;4.80;99.90;;;;;;4958567;28;20054;-73
2021/03/22 04:26:42;;;;;;;44.67;7.85;;;4.80;99.90;;;;;;4962098;28;20023;-73
2021/03/22 04:29:07;;;;;;;35.00;8.10;;;4.70;99.90;;;;;;4964018;28;20435;-72
2021/03/22 04:31:33;;;;;;;30.10;8.45;;;4.80;99.90;;;;;;4963482;28;20054;-74
2021/03/22 04:34:00;;;;;;;26.73;7.13;;;4.80;99.90;;;;;;4957687;28;20042;-74
2021/03/22 04:36:29;;;;;;;23.67;7.28;;;4.80;99.90;;;;;;4965083;28;20031;-73
2021/03/22 04:38:55;;;;;;;26.58;7.70;;;4.80;99.90;;;;;;4958317;28;20035;-73
2021/03/22 04:41:22;;;;;;;32.47;8.32;;;4.80;99.90;;;;;;4958194;28;20529;-74
2021/03/22 04:43:49;;;;;;;35.35;8.95;;;4.70;99.90;;;;;;4961176;28;20090;-74
2021/03/22 04:46:14;;;;;;;33.40;7.65;;;4.80;99.90;;;;;;4958275;28;20035;-73
2021/03/22 04:48:40;;;;;;;38.90;8.90;;;4.80;99.90;;;;;;4958007;28;20035;-73
2021/03/22 04:51:06;;;;;;;31.60;8.88;;;4.90;99.90;;;;;;4966582;28;20030;-73
2021/03/22 04:53:33;;;;;;;30.67;9.27;;;4.90;99.90;;;;;;4955882;28;20032;-74
2021/03/22 04:55:58;;;;;;;32.97;8.73;;;5.00;99.90;;;;;;4963396;28;20026;-73
2021/03/22 04:58:24;;;;;;;30.67;8.82;;;5.00;99.90;;;;;;4956233;28;20038;-73
2021/03/22 05:00:50;;;;;;;36.60;9.05;;;5.00;99.90;;;;;;4946063;28;20031;-73
2021/03/22 05:03:19;;;;;;;41.25;10.68;;;5.10;99.90;;;;;;4962954;28;20082;-72
2021/03/22 05:05:45;;;;;;;33.90;10.27;;;5.10;99.90;;;;;;4964646;28;20034;-73
2021/03/22 05:08:13;;;;;;;31.48;8.60;;;5.20;99.90;;;;;;4960588;28;20065;-73
2021/03/22 05:10:42;;;;;;;29.52;9.70;;;5.20;99.90;;;;;;4964643;28;20035;-74
2021/03/22 05:13:11;;;;;;;53.85;10.57;;;5.20;99.90;;;;;;4960623;28;20039;-72
2021/03/22 05:15:37;;;;;;;40.17;9.93;;;5.20;99.90;;;;;;4961747;28;20466;-73
2021/03/22 05:18:04;;;;;;;34.63;9.77;;;5.30;99.90;;;;;;4964732;28;20052;-73
2021/03/22 05:20:34;;;;;;;38.47;9.73;;;5.30;99.90;;;;;;4964029;28;20027;-73
2021/03/22 05:23:05;;;;;;;42.58;10.55;;;5.30;99.90;;;;;;4957294;28;20031;-73
2021/03/22 05:25:31;;;;;;;38.80;10.70;;;5.30;99.90;;;;;;4946530;28;20503;-74
2021/03/22 05:27:58;;;;;;;40.35;9.85;;;5.40;99.90;;;;;;4961405;28;20046;-74
2021/03/22 05:30:25;;;;;;;33.08;10.07;;;5.40;99.90;;;;;;4968484;28;20023;-74
2021/03/22 05:32:58;;;;;;;30.42;8.63;;;5.40;99.90;;;;;;4961926;28;20047;-73
2021/03/22 05:35:25;;;;;;;29.10;10.50;;;5.50;99.90;;;;;;4942299;28;20430;-74
2021/03/22 05:37:51;;;;;;;28.65;8.57;;;5.50;99.90;;;;;;4967135;28;20503;-73
2021/03/22 05:40:25;;;;;;;36.05;9.00;;;5.50;99.90;;;;;;4969746;28;20061;-73
2021/03/22 05:43:28;;;;;;;40.00;10.40;;;5.50;99.90;;;;;;4965591;28;20031;-74
2021/03/22 05:46:13;;;;;;;36.88;9.73;;;5.40;99.90;;;;;;4921154;28;20051;-74
2021/03/22 05:49:00;;;;;;;31.02;9.10;;;5.40;99.90;;;;;;4963882;28;20060;-73
2021/03/22 05:51:43;;;;;;;42.95;11.18;;;5.40;99.90;;;;;;4970733;28;20035;-74
2021/03/22 05:54:11;;;;;;;35.15;9.50;;;5.50;99.90;;;;;;4967888;28;20035;-75
2021/03/22 05:56:55;;;;;;;35.05;9.50;;;5.40;99.90;;;;;;4972348;28;20027;-75
2021/03/22 06:00:00;;;;;;;32.45;10.25;;;5.40;99.90;;;;;;4973110;28;20491;-71
2021/03/22 06:02:30;;;;;;;30.85;9.73;;;5.50;99.90;;;;;;4928268;28;20538;-75
2021/03/22 06:05:04;;;;;;;41.60;11.10;;;5.50;99.90;;;;;;4963606;28;20083;-74
2021/03/22 06:07:35;;;;;;;38.63;11.55;;;5.70;99.90;;;;;;4967330;28;20058;-74
2021/03/22 06:10:11;;;;;;;37.38;11.40;;;5.80;99.90;;;;;;4970156;28;20023;-75
2021/03/22 06:12:40;;;;;;;48.25;12.88;;;5.80;99.90;;;;;;4963411;28;20039;-74
2021/03/22 06:15:29;;;;;;;37.63;12.02;;;5.80;99.90;;;;;;4971483;28;20403;-74
2021/03/22 06:18:04;;;;;;;40.42;11.93;;;5.70;99.90;;;;;;4967471;28;20101;-75
2021/03/22 06:20:33;;;;;;;42.03;12.63;;;5.80;99.90;;;;;;4970732;28;20463;-75
2021/03/22 06:23:06;;;;;;;38.15;11.60;;;5.70;99.90;;;;;;4965961;28;20031;-73
2021/03/22 06:25:33;;;;;;;;;;;5.80;99.90;;;;;;4958540;28;20035;-71
2021/03/22 06:28:17;;;;;;;46.22;11.52;;;5.90;99.90;;;;;;4969443;28;19914;-73
2021/03/22 06:31:02;;;;;;;40.03;11.80;;;5.90;99.90;;;;;;4967698;28;20082;-73
2021/03/22 06:33:40;;;;;;;42.95;12.27;;;6.00;99.90;;;;;;4964617;28;20045;-73
2021/03/22 06:36:09;;;;;;;49.92;13.27;;;6.10;99.90;;;;;;4949864;28;20031;-73
2021/03/22 06:38:35;;;;;;;41.03;13.32;;;6.10;99.90;;;;;;4964669;28;20037;-73
2021/03/22 06:41:26;;;;;;;53.35;14.93;;;6.10;99.90;;;;;;4971679;28;20110;-73
2021/03/22 06:43:53;;;;;;;46.97;12.60;;;6.10;99.90;;;;;;4966261;28;20031;-72
2021/03/22 06:46:19;;;;;;;43.50;13.15;;;6.20;99.90;;;;;;4963540;28;20023;-73
2021/03/22 06:49:03;;;;;;;48.15;14.68;;;6.20;99.90;;;;;;4962248;28;20031;-73
2021/03/22 06:51:29;;;;;;;37.95;12.40;;;6.20;99.90;;;;;;4963300;28;20062;-74
2021/03/22 06:54:00;;;;;;;53.30;13.23;;;6.30;99.90;;;;;;4962341;28;20057;-74
2021/03/22 06:56:37;;;;;;;43.83;14.63;;;6.30;99.90;;;;;;4957703;28;20043;-74
2021/03/22 06:59:18;;;;;;;46.05;13.95;;;6.40;99.90;;;;;;4963058;28;20113;-74
2021/03/22 07:01:46;;;;;;;53.50;13.85;;;6.40;99.90;;;;;;4958168;28;20551;-73
2021/03/22 07:04:28;;;;;;;51.13;12.60;;;6.40;99.90;;;;;;4960033;28;20412;-74
2021/03/22 07:07:14;;;;;;;44.13;13.35;;;6.50;99.90;;;;;;4957841;28;20106;-74
2021/03/22 07:09:49;;;;;;;38.30;12.57;;;6.50;99.90;;;;;;4966530;28;20033;-74
2021/03/22 07:12:35;;;;;;;38.88;12.88;;;6.50;99.90;;;;;;4965104;28;20406;-73
2021/03/22 07:15:37;;;;;;;41.72;14.10;;;6.60;99.90;;;;;;4943719;28;20470;-74
2021/03/22 07:18:11;;;;;;;35.97;12.88;;;6.60;99.90;;;;;;4962726;28;20030;-73
2021/03/22 07:20:38;;;;;;;47.13;15.57;;;6.70;99.90;;;;;;4963545;28;20472;-74
2021/03/22 07:23:22;;;;;;;48.35;13.43;;;6.80;99.90;;;;;;4969293;28;20030;-74
2021/03/22 07:25:55;;;;;;;43.47;13.52;;;6.90;99.90;;;;;;4967502;28;20089;-74
2021/03/22 07:28:26;;;;;;;50.08;12.68;;;7.00;99.90;;;;;;4959960;28;20030;-74
2021/03/22 07:31:25;;;;;;;42.60;13.60;;;7.10;99.90;;;;;;4951647;28;20089;-74
2021/03/22 07:34:15;;;;;;;47.78;13.30;;;7.10;99.90;;;;;;4920125;28;20109;-74
2021/03/22 07:36:53;;;;;;;50.42;12.88;;;7.20;99.90;;;;;;4967467;28;20027;-75
2021/03/22 07:39:29;;;;;;;32.55;11.13;;;7.20;99.90;;;;;;4962772;28;20113;-74
2021/03/22 07:42:33;;;;;;;38.15;12.05;;;7.30;99.90;;;;;;4962374;28;20096;-73
2021/03/22 07:45:17;;;;;;;;;;;7.40;99.90;;;;;;4963154;28;20023;-71
2021/03/22 07:48:06;;;;;;;37.45;10.88;;;7.50;99.90;;;;;;4962340;28;20879;-72
2021/03/22 07:50:35;;;;;;;39.60;11.93;;;7.60;99.90;;;;;;4962373;28;20062;-72
2021/03/22 07:53:14;;;;;;;45.67;12.63;;;7.70;99.90;;;;;;4963415;28;20351;-72
2021/03/22 07:55:54;;;;;;;40.55;10.82;;;7.70;99.90;;;;;;4961590;28;20023;-73
2021/03/22 07:58:55;;;;;;;33.42;12.05;;;7.80;99.90;;;;;;4958235;28;20028;-72
2021/03/22 08:02:01;;;;;;;33.63;11.23;;;7.80;99.90;;;;;;4964830;28;20537;-72
2021/03/22 08:05:04;;;;;;;37.33;10.65;;;7.80;99.90;;;;;;4961415;28;20081;-72
2021/03/22 08:07:56;;;;;;;39.70;10.95;;;7.80;99.90;;;;;;4959493;28;20475;-72
2021/03/22 08:10:33;;;;;;;30.70;9.85;;;7.90;99.90;;;;;;4966145;28;20039;-72
2021/03/22 08:13:37;;;;;;;36.55;9.07;;;7.90;99.90;;;;;;4965127;28;20049;-72
2021/03/22 08:16:36;;;;;;;35.60;9.98;;;8.00;99.90;;;;;;4918011;28;20047;-72
2021/03/22 08:19:34;;;;;;;32.05;10.10;;;8.10;99.90;;;;;;4954939;28;20461;-72
2021/03/22 08:22:10;;;;;;;32.53;9.55;;;8.20;99.90;;;;;;4939379;28;20035;-72
2021/03/22 08:24:50;;;;;;;34.45;9.48;;;8.30;99.90;;;;;;4962398;28;20114;-72
2021/03/22 08:27:20;;;;;;;30.50;8.80;;;8.40;99.90;;;;;;4946445;28;20382;-72
2021/03/22 08:30:06;;;;;;;33.45;9.65;;;8.50;99.90;;;;;;4957663;28;20032;-72
2021/03/22 08:32:50;;;;;;;30.25;9.93;;;8.40;99.90;;;;;;4965742;28;20047;-72
2021/03/22 08:35:19;;;;;;;32.40;9.15;;;8.50;99.90;;;;;;4949698;28;20034;-72
2021/03/22 08:37:46;;;;;;;28.00;8.52;;;8.50;99.90;;;;;;4962114;28;20168;-72
2021/03/22 08:40:28;;;;;;;29.40;8.65;;;8.50;99.90;;;;;;4960420;28;20022;-72
2021/03/22 08:43:00;;;;;;;27.77;8.65;;;8.60;99.90;;;;;;4964876;28;20045;-74
2021/03/22 08:45:45;;;;;;;25.75;7.32;;;8.60;99.90;;;;;;4963442;28;20027;-72
2021/03/22 08:48:40;;;;;;;20.02;7.00;;;8.70;99.90;;;;;;4964833;28;20026;-72
2021/03/22 08:51:12;;;;;;;31.92;8.15;;;8.60;99.90;;;;;;4952105;28;20074;-72
2021/03/22 08:53:39;;;;;;;27.60;7.82;;;8.70;99.90;;;;;;4962822;28;20043;-72
2021/03/22 08:56:24;;;;;;;25.75;7.90;;;8.60;99.90;;;;;;4942728;28;20111;-72
2021/03/22 08:58:53;;;;;;;27.55;8.15;;;8.60;99.90;;;;;;4959627;28;20062;-72
2021/03/22 09:01:23;;;;;;;30.33;8.23;;;8.70;99.90;;;;;;4962487;28;20024;-72
2021/03/22 09:03:51;;;;;;;23.27;7.82;;;8.70;99.90;;;;;;4959808;28;20551;-72
2021/03/22 09:06:24;;;;;;;24.27;7.53;;;8.90;99.90;;;;;;4964325;28;20031;-72
2021/03/22 09:08:50;;;;;;;22.48;7.05;;;8.90;99.90;;;;;;4956375;28;20035;-71
2021/03/22 09:11:25;;;;;;;26.85;6.90;;;9.00;99.90;;;;;;4959500;28;20031;-71
2021/03/22 09:14:16;;;;;;;22.67;7.15;;;8.90;99.90;;;;;;4950905;28;20039;-72
2021/03/22 09:16:43;;;;;;;23.30;7.50;;;8.90;99.90;;;;;;4944879;28;20079;-72
2021/03/22 09:19:13;;;;;;;24.63;7.75;;;9.00;99.90;;;;;;4965794;28;20069;-71
2021/03/22 09:21:41;;;;;;;25.27;7.57;;;9.00;99.90;;;;;;4952741;28;20067;-72
2021/03/22 09:24:38;;;;;;;12.98;6.28;;;9.00;99.90;;;;;;4959821;28;20042;-72
2021/03/22 09:27:16;;;;;;;16.75;5.50;;;9.00;99.90;;;;;;4962021;28;20041;-72
2021/03/22 09:29:43;;;;;;;21.00;5.80;;;9.00;99.90;;;;;;4968411;28;20030;-72
2021/03/22 09:32:31;;;;;;;19.05;6.40;;;9.10;99.90;;;;;;4965736;28;20090;-72
2021/03/22 09:35:01;;;;;;;16.77;5.13;;;9.10;99.90;;;;;;4953469;28;20487;-72
2021/03/22 09:38:00;;;;;;;7.47;3.53;;;9.10;99.90;;;;;;4963199;28;20087;-71
2021/03/22 09:40:26;;;;;;;13.20;4.32;;;9.10;99.90;;;;;;4962747;28;20780;-74
2021/03/22 09:45:35;;;;;;;8.13;3.30;;;9.10;99.90;;;;;;4969527;28;20037;-74
2021/03/22 09:48:28;;;;;;;7.10;3.30;;;9.20;99.90;;;;;;4940226;28;20144;-73
2021/03/22 09:51:16;;;;;;;9.77;3.70;;;9.20;99.90;;;;;;4949160;28;20058;-73
2021/03/22 09:53:52;;;;;;;10.77;3.35;;;9.20;99.90;;;;;;4940844;28;20435;-72
2021/03/22 09:56:34;;;;;;;6.70;3.13;;;9.30;99.90;;;;;;4958874;28;20027;-73
2021/03/22 09:59:33;;;;;;;4.90;2.95;;;9.30;99.90;;;;;;4965589;28;20519;-73
2021/03/22 10:02:01;;;;;;;7.15;3.75;;;9.20;99.90;;;;;;4944497;28;20039;-73
2021/03/22 10:04:28;;;;;;;6.43;2.60;;;9.20;99.90;;;;;;4958253;28;20387;-73
2021/03/22 10:07:00;;;;;;;9.63;3.50;;;9.20;99.90;;;;;;4964474;28;20391;-72
2021/03/22 10:09:39;;;;;;;6.13;3.58;;;9.20;99.90;;;;;;4967349;28;20051;-72
2021/03/22 10:12:38;;;;;;;11.38;3.42;;;9.10;99.90;;;;;;4967068;28;20050;-72
2021/03/22 10:15:13;;;;;;;9.35;3.20;;;9.20;99.90;;;;;;4952596;28;20035;-72
2021/03/22 10:17:59;;;;;;;5.20;3.10;;;9.20;99.90;;;;;;4961456;28;20063;-71
2021/03/22 10:20:38;;;;;;;5.15;2.97;;;9.20;99.90;;;;;;4963354;28;20146;-72
2021/03/22 10:23:30;;;;;;;12.82;4.00;;;9.20;99.90;;;;;;4960912;28;20020;-73
2021/03/22 10:26:05;;;;;;;13.65;4.13;;;9.20;99.90;;;;;;4956397;28;20019;-73
2021/03/22 10:28:31;;;;;;;19.15;4.63;;;9.20;99.90;;;;;;4941898;28;20483;-74
2021/03/22 10:30:58;;;;;;;16.60;4.03;;;9.30;99.90;;;;;;4958327;28;20148;-73
2021/03/22 10:33:24;;;;;;;11.70;4.03;;;9.30;99.90;;;;;;4953787;28;20039;-73
2021/03/22 10:35:54;;;;;;;10.50;3.80;;;9.30;99.90;;;;;;4963019;28;20426;-73
2021/03/22 10:38:27;;;;;;;8.10;3.10;;;9.40;99.90;;;;;;4959714;28;20495;-73
2021/03/22 10:40:54;;;;;;;8.68;3.60;;;9.40;99.90;;;;;;4964254;28;20027;-73
2021/03/22 10:43:40;;;;;;;5.90;3.20;;;9.50;99.90;;;;;;4968559;28;20369;-73
2021/03/22 10:46:25;;;;;;;9.10;4.30;;;9.60;99.90;;;;;;4963005;28;20042;-72
2021/03/22 10:49:02;;;;;;;10.10;3.42;;;9.60;99.90;;;;;;4965886;28;20035;-74
2021/03/22 10:51:38;;;;;;;7.97;3.00;;;9.60;99.90;;;;;;4946662;28;20170;-73
2021/03/22 10:54:09;;;;;;;8.32;3.45;;;9.60;99.90;;;;;;4964140;28;20038;-73
2021/03/22 10:56:57;;;;;;;12.60;3.97;;;9.60;99.90;;;;;;4947287;28;20019;-73
2021/03/22 10:59:31;;;;;;;9.05;3.00;;;9.60;99.90;;;;;;4952700;28;20548;-73
2021/03/22 11:02:01;;;;;;;11.35;3.63;;;9.70;99.90;;;;;;4945332;28;20060;-73
2021/03/22 11:04:34;;;;;;;8.15;3.33;;;9.70;99.90;;;;;;4946587;28;20170;-73
2021/03/22 11:07:14;;;;;;;11.93;4.20;;;9.70;99.90;;;;;;4968428;28;20031;-73
2021/03/22 11:09:50;;;;;;;9.25;4.22;;;9.70;99.90;;;;;;4962144;28;20082;-73
2021/03/22 11:12:16;;;;;;;8.90;4.07;;;9.70;99.90;;;;;;4967218;28;20075;-73
2021/03/22 11:14:42;;;;;;;12.55;4.78;;;9.70;99.90;;;;;;4960632;28;20027;-73
2021/03/22 11:17:15;;;;;;;12.25;4.25;;;9.70;99.90;;;;;;4950548;28;20522;-73
2021/03/22 11:19:45;;;;;;;12.85;3.42;;;9.70;99.90;;;;;;4956732;28;20046;-74
2021/03/22 11:22:31;;;;;;;9.55;3.83;;;9.70;99.90;;;;;;4950966;28;20093;-73
2021/03/22 11:24:58;;;;;;;8.02;3.67;;;9.80;99.90;;;;;;4958589;28;20041;-73
2021/03/22 11:27:45;;;;;;;9.48;3.78;;;9.80;99.90;;;;;;4966257;28;20055;-73
2021/03/22 11:30:13;;;;;;;11.52;3.70;;;9.90;99.90;;;;;;4964858;28;20093;-73
2021/03/22 11:32:46;;;;;;;10.68;4.78;;;9.90;99.90;;;;;;4965352;28;20062;-73
2021/03/22 11:35:21;;;;;;;8.75;4.80;;;10.00;99.90;;;;;;4959244;28;20022;-73
2021/03/22 11:37:56;;;;;;;8.50;4.03;;;10.00;99.90;;;;;;4960869;28;20023;-73
2021/03/22 11:40:27;;;;;;;10.50;3.72;;;10.10;99.90;;;;;;4944621;28;20027;-73
2021/03/22 11:43:03;;;;;;;9.73;4.72;;;10.10;99.90;;;;;;4946915;28;20359;-73
2021/03/22 11:45:31;;;;;;;11.48;4.30;;;10.30;99.90;;;;;;4961370;28;20041;-72
2021/03/22 11:47:57;;;;;;;11.25;5.07;;;10.40;99.90;;;;;;4964170;28;20041;-72
2021/03/22 11:50:38;;;;;;;12.52;4.35;;;10.40;99.90;;;;;;4963898;28;20042;-72
2021/03/22 11:53:20;;;;;;;10.85;4.18;;;10.40;99.90;;;;;;4959542;28;20042;-72
2021/03/22 11:55:47;;;;;;;11.23;4.28;;;10.50;99.90;;;;;;4956756;28;20023;-71
2021/03/22 11:58:39;;;;;;;12.32;4.70;;;10.50;99.90;;;;;;4950740;28;20149;-72
2021/03/22 12:01:25;;;;;;;9.63;4.80;;;10.50;99.90;;;;;;4954808;28;20380;-72
2021/03/22 12:04:03;;;;;;;10.65;4.63;;;10.50;99.90;;;;;;4953649;28;20031;-73
2021/03/22 12:06:32;;;;;;;12.48;5.25;;;10.50;99.90;;;;;;4956980;28;20042;-73
2021/03/22 12:08:57;;;;;;;13.95;4.82;;;10.40;99.90;;;;;;4958523;28;20081;-73
2021/03/22 12:11:27;;;;;;;9.98;5.53;;;10.50;99.90;;;;;;4961472;28;20034;-73
2021/03/22 12:14:02;;;;;;;13.05;5.20;;;10.50;99.90;;;;;;4946592;28;20039;-74
2021/03/22 12:16:34;;;;;;;7.63;4.63;;;10.60;99.90;;;;;;4958426;28;20058;-73
2021/03/22 12:19:09;;;;;;;9.75;4.20;;;10.70;99.90;;;;;;4966824;28;20035;-73
2021/03/22 12:21:36;;;;;;;9.75;4.10;;;10.80;99.90;;;;;;4958788;28;20055;-72
2021/03/22 12:24:03;;;;;;;12.45;5.35;;;10.90;99.90;;;;;;4958519;28;20031;-72
2021/03/22 12:26:30;;;;;;;15.15;5.60;;;10.80;99.90;;;;;;4959827;28;20035;-73
2021/03/22 12:28:56;;;;;;;13.25;5.50;;;10.80;99.90;;;;;;4945674;28;20031;-73
2021/03/22 12:31:33;;;;;;;12.50;4.68;;;10.80;99.90;;;;;;4957431;28;20042;-73
2021/03/22 12:34:00;;;;;;;10.50;4.82;;;10.90;99.90;;;;;;4961075;28;20059;-73
2021/03/22 12:36:27;;;;;;;9.93;5.28;;;10.90;99.90;;;;;;4956554;28;20134;-72
2021/03/22 12:38:53;;;;;;;14.25;5.38;;;11.10;99.90;;;;;;4953694;28;20066;-73
2021/03/22 12:41:23;;;;;;;8.77;4.68;;;11.10;99.90;;;;;;4956357;28;20066;-73
2021/03/22 12:43:50;;;;;;;7.90;4.63;;;11.10;99.90;;;;;;4952941;28;20141;-73
2021/03/22 12:46:16;;;;;;;7.93;4.13;;;11.30;99.90;;;;;;4962597;28;20029;-74
2021/03/22 12:48:41;;;;;;;10.75;4.13;;;11.50;99.90;;;;;;4949713;28;20026;-73
2021/03/22 12:51:07;;;;;;;12.30;5.25;;;11.60;99.90;;;;;;4950154;28;20025;-73
2021/03/22 12:53:33;;;;;;;10.13;4.32;;;11.50;99.90;;;;;;4966634;28;20079;-74
2021/03/22 12:55:59;;;;;;;9.35;3.83;;;11.50;99.90;;;;;;4962100;28;20029;-73
2021/03/22 12:58:26;;;;;;;9.13;4.20;;;11.40;99.90;;;;;;4959938;28;20042;-74
2021/03/22 13:00:54;;;;;;;8.02;3.30;;;11.40;99.90;;;;;;4961248;28;20053;-74
2021/03/22 13:03:22;;;;;;;8.82;3.97;;;11.30;99.90;;;;;;4957525;28;20038;-73
2021/03/22 13:05:52;;;;;;;8.88;4.18;;;11.30;99.90;;;;;;4959120;28;20016;-73
2021/03/22 13:08:17;;;;;;;5.93;3.85;;;11.30;99.90;;;;;;4959948;28;20050;-73
2021/03/22 13:10:43;;;;;;;6.90;4.28;;;11.20;99.90;;;;;;4959068;28;20023;-73
2021/03/22 13:13:09;;;;;;;11.30;3.70;;;11.20;99.90;;;;;;4957515;28;20045;-72
2021/03/22 13:15:45;;;;;;;6.38;3.42;;;11.10;99.90;;;;;;4961892;28;20035;-72
2021/03/22 13:18:21;;;;;;;7.70;3.75;;;11.00;99.90;;;;;;4955411;28;20394;-74
2021/03/22 13:20:51;;;;;;;8.45;3.20;;;11.00;99.90;;;;;;4965470;28;20034;-74